sensor_id;sensor_type;location;lat;lon;timestamp;P1;durP1;ratioP1;P2;durP2;ratioP2
22794;SDS011;11564;50.920;11.612;2023-04-25T00:00:06;9.53;;;3.77;;
22794;SDS011;11564;50.920;11.612;2023-04-25T00:02:33;4.37;;;3.90;;
22794;SDS011;11564;50.920;11.612;2023-04-25T00:05:00;5.03;;;3.90;;
22794;SDS011;11564;50.920;11.612;2023-04-25T00:07:26;5.00;;;3.40;;
22794;SDS011;11564;50.920;11.612;2023-04-25T00:09:52;3.50;;;3.20;;
22794;SDS011;11564;50.920;11.612;2023-04-25T00:12:18;3.70;;;3.40;;
22794;SDS011;11564;50.920;11.612;2023-04-25T00:14:43;9.03;;;3.90;;
22794;SDS011;11564;50.920;11.612;2023-04-25T00:17:10;5.47;;;3.40;;
22794;SDS011;11564;50.920;11.612;2023-04-25T00:19:36;4.97;;;3.13;;
22794;SDS011;11564;50.920;11.612;2023-04-25T00:22:02;4.33;;;3.47;;
22794;SDS011;11564;50.920;11.612;2023-04-25T00:24:28;3.90;;;3.40;;
22794;SDS011;11564;50.920;11.612;2023-04-25T00:26:54;3.60;;;3.30;;
22794;SDS011;11564;50.920;11.612;2023-04-25T00:29:20;6.07;;;3.80;;
22794;SDS011;11564;50.920;11.612;2023-04-25T00:31:46;4.57;;;3.10;;
22794;SDS011;11564;50.920;11.612;2023-04-25T00:34:11;3.20;;;3.00;;
22794;SDS011;11564;50.920;11.612;2023-04-25T00:36:37;2.80;;;2.60;;
22794;SDS011;11564;50.920;11.612;2023-04-25T00:39:03;4.20;;;3.10;;
22794;SDS011;11564;50.920;11.612;2023-04-25T00:41:29;4.60;;;3.03;;
22794;SDS011;11564;50.920;11.612;2023-04-25T00:43:55;8.40;;;2.93;;
22794;SDS011;11564;50.920;11.612;2023-04-25T00:46:21;27.80;;;3.70;;
22794;SDS011;11564;50.920;11.612;2023-04-25T00:48:47;3.50;;;3.20;;
22794;SDS011;11564;50.920;11.612;2023-04-25T00:51:16;4.93;;;3.23;;
22794;SDS011;11564;50.920;11.612;2023-04-25T00:53:45;4.53;;;3.20;;
22794;SDS011;11564;50.920;11.612;2023-04-25T00:56:11;2.87;;;2.63;;
22794;SDS011;11564;50.920;11.612;2023-04-25T00:58:37;3.20;;;2.90;;
22794;SDS011;11564;50.920;11.612;2023-04-25T01:01:03;3.20;;;2.90;;
22794;SDS011;11564;50.920;11.612;2023-04-25T01:03:30;4.97;;;2.83;;
22794;SDS011;11564;50.920;11.612;2023-04-25T01:06:00;4.13;;;3.10;;
22794;SDS011;11564;50.920;11.612;2023-04-25T01:08:26;4.20;;;3.17;;
22794;SDS011;11564;50.920;11.612;2023-04-25T01:10:52;6.23;;;3.20;;
22794;SDS011;11564;50.920;11.612;2023-04-25T01:13:18;3.37;;;3.07;;
22794;SDS011;11564;50.920;11.612;2023-04-25T01:15:43;4.00;;;3.20;;
22794;SDS011;11564;50.920;11.612;2023-04-25T01:18:09;5.13;;;3.50;;
22794;SDS011;11564;50.920;11.612;2023-04-25T01:20:35;7.30;;;3.07;;
22794;SDS011;11564;50.920;11.612;2023-04-25T01:23:03;3.07;;;2.80;;
22794;SDS011;11564;50.920;11.612;2023-04-25T01:25:29;3.60;;;3.30;;
22794;SDS011;11564;50.920;11.612;2023-04-25T01:27:55;4.73;;;3.63;;
22794;SDS011;11564;50.920;11.612;2023-04-25T01:30:22;5.20;;;3.30;;
22794;SDS011;11564;50.920;11.612;2023-04-25T01:32:49;7.67;;;3.67;;
22794;SDS011;11564;50.920;11.612;2023-04-25T01:35:14;5.13;;;3.20;;
22794;SDS011;11564;50.920;11.612;2023-04-25T01:37:40;4.07;;;3.53;;
22794;SDS011;11564;50.920;11.612;2023-04-25T01:40:08;6.37;;;3.17;;
22794;SDS011;11564;50.920;11.612;2023-04-25T01:42:35;4.07;;;3.10;;
22794;SDS011;11564;50.920;11.612;2023-04-25T01:45:03;5.03;;;3.10;;
22794;SDS011;11564;50.920;11.612;2023-04-25T01:47:29;4.53;;;3.63;;
22794;SDS011;11564;50.920;11.612;2023-04-25T01:49:55;3.33;;;3.03;;
22794;SDS011;11564;50.920;11.612;2023-04-25T01:52:20;6.60;;;3.10;;
22794;SDS011;11564;50.920;11.612;2023-04-25T01:54:46;5.57;;;3.03;;
22794;SDS011;11564;50.920;11.612;2023-04-25T01:57:12;8.93;;;3.20;;
22794;SDS011;11564;50.920;11.612;2023-04-25T01:59:39;2.93;;;2.63;;
22794;SDS011;11564;50.920;11.612;2023-04-25T02:02:05;6.63;;;3.07;;
22794;SDS011;11564;50.920;11.612;2023-04-25T02:04:31;6.43;;;2.80;;
22794;SDS011;11564;50.920;11.612;2023-04-25T02:06:57;3.40;;;3.10;;
22794;SDS011;11564;50.920;11.612;2023-04-25T02:09:23;5.10;;;3.33;;
22794;SDS011;11564;50.920;11.612;2023-04-25T02:11:48;6.00;;;2.63;;
22794;SDS011;11564;50.920;11.612;2023-04-25T02:14:14;4.83;;;3.43;;
22794;SDS011;11564;50.920;11.612;2023-04-25T02:16:40;4.43;;;3.20;;
22794;SDS011;11564;50.920;11.612;2023-04-25T02:19:06;4.20;;;3.80;;
22794;SDS011;11564;50.920;11.612;2023-04-25T02:21:32;2.70;;;2.60;;
22794;SDS011;11564;50.920;11.612;2023-04-25T02:24:00;6.80;;;3.50;;
22794;SDS011;11564;50.920;11.612;2023-04-25T02:26:26;4.33;;;3.90;;
22794;SDS011;11564;50.920;11.612;2023-04-25T02:28:52;4.10;;;3.57;;
22794;SDS011;11564;50.920;11.612;2023-04-25T02:31:17;3.47;;;3.10;;
22794;SDS011;11564;50.920;11.612;2023-04-25T02:33:43;9.27;;;3.97;;
22794;SDS011;11564;50.920;11.612;2023-04-25T02:36:09;3.93;;;3.53;;
22794;SDS011;11564;50.920;11.612;2023-04-25T02:38:35;11.97;;;2.93;;
22794;SDS011;11564;50.920;11.612;2023-04-25T02:41:01;4.50;;;3.20;;
22794;SDS011;11564;50.920;11.612;2023-04-25T02:43:26;3.63;;;3.33;;
22794;SDS011;11564;50.920;11.612;2023-04-25T02:45:52;8.80;;;3.10;;
22794;SDS011;11564;50.920;11.612;2023-04-25T02:48:17;5.63;;;3.90;;
22794;SDS011;11564;50.920;11.612;2023-04-25T02:50:43;10.33;;;5.10;;
22794;SDS011;11564;50.920;11.612;2023-04-25T02:53:09;5.17;;;3.90;;
22794;SDS011;11564;50.920;11.612;2023-04-25T02:55:35;4.10;;;3.80;;
22794;SDS011;11564;50.920;11.612;2023-04-25T02:58:01;5.13;;;3.90;;
22794;SDS011;11564;50.920;11.612;2023-04-25T03:00:26;4.43;;;4.03;;
22794;SDS011;11564;50.920;11.612;2023-04-25T03:02:52;4.80;;;4.40;;
22794;SDS011;11564;50.920;11.612;2023-04-25T03:05:17;8.93;;;4.50;;
22794;SDS011;11564;50.920;11.612;2023-04-25T03:07:44;5.00;;;4.40;;
22794;SDS011;11564;50.920;11.612;2023-04-25T03:10:11;3.80;;;3.50;;
22794;SDS011;11564;50.920;11.612;2023-04-25T03:12:37;4.00;;;3.63;;
22794;SDS011;11564;50.920;11.612;2023-04-25T03:15:03;7.93;;;4.03;;
22794;SDS011;11564;50.920;11.612;2023-04-25T03:17:29;4.40;;;4.00;;
22794;SDS011;11564;50.920;11.612;2023-04-25T03:19:55;4.27;;;3.53;;
22794;SDS011;11564;50.920;11.612;2023-04-25T03:22:22;9.70;;;4.03;;
22794;SDS011;11564;50.920;11.612;2023-04-25T03:24:48;6.70;;;4.50;;
22794;SDS011;11564;50.920;11.612;2023-04-25T03:27:14;4.57;;;3.90;;
22794;SDS011;11564;50.920;11.612;2023-04-25T03:29:41;7.27;;;3.30;;
22794;SDS011;11564;50.920;11.612;2023-04-25T03:32:07;9.23;;;4.30;;
22794;SDS011;11564;50.920;11.612;2023-04-25T03:34:32;4.40;;;4.00;;
22794;SDS011;11564;50.920;11.612;2023-04-25T03:36:58;5.70;;;3.40;;
22794;SDS011;11564;50.920;11.612;2023-04-25T03:39:23;4.60;;;3.30;;
22794;SDS011;11564;50.920;11.612;2023-04-25T03:41:49;4.70;;;4.30;;
22794;SDS011;11564;50.920;11.612;2023-04-25T03:44:15;4.90;;;3.53;;
22794;SDS011;11564;50.920;11.612;2023-04-25T03:46:40;7.47;;;3.57;;
22794;SDS011;11564;50.920;11.612;2023-04-25T03:49:06;5.10;;;3.60;;
22794;SDS011;11564;50.920;11.612;2023-04-25T03:51:31;3.60;;;3.30;;
22794;SDS011;11564;50.920;11.612;2023-04-25T03:53:57;6.40;;;3.30;;
22794;SDS011;11564;50.920;11.612;2023-04-25T03:56:23;3.37;;;3.07;;
22794;SDS011;11564;50.920;11.612;2023-04-25T03:58:48;4.60;;;3.10;;
22794;SDS011;11564;50.920;11.612;2023-04-25T04:01:14;3.67;;;3.47;;
22794;SDS011;11564;50.920;11.612;2023-04-25T04:03:40;6.53;;;4.40;;
22794;SDS011;11564;50.920;11.612;2023-04-25T04:06:06;6.60;;;3.90;;
22794;SDS011;11564;50.920;11.612;2023-04-25T04:08:32;3.73;;;3.53;;
22794;SDS011;11564;50.920;11.612;2023-04-25T04:10:58;6.47;;;3.50;;
22794;SDS011;11564;50.920;11.612;2023-04-25T04:13:27;5.77;;;3.47;;
22794;SDS011;11564;50.920;11.612;2023-04-25T04:15:53;4.20;;;3.80;;
22794;SDS011;11564;50.920;11.612;2023-04-25T04:18:20;4.10;;;3.70;;
22794;SDS011;11564;50.920;11.612;2023-04-25T04:20:46;6.20;;;3.93;;
22794;SDS011;11564;50.920;11.612;2023-04-25T04:23:12;7.30;;;3.63;;
22794;SDS011;11564;50.920;11.612;2023-04-25T04:25:38;3.90;;;3.60;;
22794;SDS011;11564;50.920;11.612;2023-04-25T04:28:05;4.73;;;3.50;;
22794;SDS011;11564;50.920;11.612;2023-04-25T04:30:32;5.37;;;4.10;;
22794;SDS011;11564;50.920;11.612;2023-04-25T04:33:01;4.83;;;3.00;;
22794;SDS011;11564;50.920;11.612;2023-04-25T04:35:27;4.50;;;3.80;;
22794;SDS011;11564;50.920;11.612;2023-04-25T04:37:53;3.40;;;3.13;;
22794;SDS011;11564;50.920;11.612;2023-04-25T04:40:19;5.30;;;3.60;;
22794;SDS011;11564;50.920;11.612;2023-04-25T04:42:46;3.57;;;3.30;;
22794;SDS011;11564;50.920;11.612;2023-04-25T04:45:13;9.30;;;3.83;;
22794;SDS011;11564;50.920;11.612;2023-04-25T04:47:39;4.50;;;3.70;;
22794;SDS011;11564;50.920;11.612;2023-04-25T04:50:06;4.07;;;3.77;;
22794;SDS011;11564;50.920;11.612;2023-04-25T04:52:34;9.13;;;4.30;;
22794;SDS011;11564;50.920;11.612;2023-04-25T04:55:01;5.90;;;3.60;;
22794;SDS011;11564;50.920;11.612;2023-04-25T04:57:28;6.20;;;3.70;;
22794;SDS011;11564;50.920;11.612;2023-04-25T04:59:54;4.30;;;3.77;;
22794;SDS011;11564;50.920;11.612;2023-04-25T05:02:19;11.60;;;4.83;;
22794;SDS011;11564;50.920;11.612;2023-04-25T05:04:45;5.73;;;4.07;;
22794;SDS011;11564;50.920;11.612;2023-04-25T05:07:11;4.10;;;3.67;;
22794;SDS011;11564;50.920;11.612;2023-04-25T05:09:37;6.40;;;3.80;;
22794;SDS011;11564;50.920;11.612;2023-04-25T05:12:03;6.33;;;4.03;;
22794;SDS011;11564;50.920;11.612;2023-04-25T05:14:29;10.93;;;5.03;;
22794;SDS011;11564;50.920;11.612;2023-04-25T05:16:55;10.13;;;4.40;;
22794;SDS011;11564;50.920;11.612;2023-04-25T05:19:20;4.43;;;3.77;;
22794;SDS011;11564;50.920;11.612;2023-04-25T05:21:46;6.10;;;4.40;;
22794;SDS011;11564;50.920;11.612;2023-04-25T05:24:12;6.73;;;4.50;;
22794;SDS011;11564;50.920;11.612;2023-04-25T05:26:38;5.90;;;4.07;;
22794;SDS011;11564;50.920;11.612;2023-04-25T05:29:03;8.93;;;3.83;;
22794;SDS011;11564;50.920;11.612;2023-04-25T05:31:30;8.57;;;4.13;;
22794;SDS011;11564;50.920;11.612;2023-04-25T05:33:56;5.77;;;3.97;;
22794;SDS011;11564;50.920;11.612;2023-04-25T05:36:22;6.67;;;4.37;;
22794;SDS011;11564;50.920;11.612;2023-04-25T05:38:48;7.93;;;3.67;;
22794;SDS011;11564;50.920;11.612;2023-04-25T05:41:14;5.50;;;3.60;;
22794;SDS011;11564;50.920;11.612;2023-04-25T05:43:39;4.90;;;3.17;;
22794;SDS011;11564;50.920;11.612;2023-04-25T05:46:10;5.90;;;4.53;;
22794;SDS011;11564;50.920;11.612;2023-04-25T05:48:36;7.87;;;4.10;;
22794;SDS011;11564;50.920;11.612;2023-04-25T05:51:02;7.33;;;3.67;;
22794;SDS011;11564;50.920;11.612;2023-04-25T05:53:28;6.87;;;4.77;;
22794;SDS011;11564;50.920;11.612;2023-04-25T05:55:54;5.00;;;3.83;;
22794;SDS011;11564;50.920;11.612;2023-04-25T05:58:19;17.07;;;5.13;;
22794;SDS011;11564;50.920;11.612;2023-04-25T06:00:45;6.13;;;4.43;;
22794;SDS011;11564;50.920;11.612;2023-04-25T06:03:11;8.67;;;4.47;;
22794;SDS011;11564;50.920;11.612;2023-04-25T06:05:39;10.60;;;5.13;;
22794;SDS011;11564;50.920;11.612;2023-04-25T06:08:06;6.43;;;4.40;;
22794;SDS011;11564;50.920;11.612;2023-04-25T06:10:32;12.80;;;4.30;;
22794;SDS011;11564;50.920;11.612;2023-04-25T06:12:57;8.17;;;4.37;;
22794;SDS011;11564;50.920;11.612;2023-04-25T06:15:23;5.07;;;3.67;;
22794;SDS011;11564;50.920;11.612;2023-04-25T06:17:48;7.43;;;4.33;;
22794;SDS011;11564;50.920;11.612;2023-04-25T06:20:14;6.43;;;4.00;;
22794;SDS011;11564;50.920;11.612;2023-04-25T06:22:40;4.63;;;3.77;;
22794;SDS011;11564;50.920;11.612;2023-04-25T06:25:05;4.00;;;3.57;;
22794;SDS011;11564;50.920;11.612;2023-04-25T06:27:32;6.97;;;3.43;;
22794;SDS011;11564;50.920;11.612;2023-04-25T06:30:00;6.40;;;3.30;;
22794;SDS011;11564;50.920;11.612;2023-04-25T06:32:26;4.33;;;3.63;;
22794;SDS011;11564;50.920;11.612;2023-04-25T06:34:53;4.90;;;2.90;;
22794;SDS011;11564;50.920;11.612;2023-04-25T06:37:19;7.70;;;3.20;;
22794;SDS011;11564;50.920;11.612;2023-04-25T06:39:45;4.23;;;3.23;;
22794;SDS011;11564;50.920;11.612;2023-04-25T06:42:10;4.00;;;3.40;;
22794;SDS011;11564;50.920;11.612;2023-04-25T06:44:36;6.93;;;3.20;;
22794;SDS011;11564;50.920;11.612;2023-04-25T06:47:01;10.87;;;3.43;;
22794;SDS011;11564;50.920;11.612;2023-04-25T06:49:27;3.17;;;2.87;;
22794;SDS011;11564;50.920;11.612;2023-04-25T06:51:52;7.63;;;2.90;;
22794;SDS011;11564;50.920;11.612;2023-04-25T06:54:18;7.60;;;3.00;;
22794;SDS011;11564;50.920;11.612;2023-04-25T06:56:44;6.73;;;3.67;;
22794;SDS011;11564;50.920;11.612;2023-04-25T06:59:11;4.53;;;3.20;;
22794;SDS011;11564;50.920;11.612;2023-04-25T07:01:36;3.20;;;2.57;;
22794;SDS011;11564;50.920;11.612;2023-04-25T07:04:02;3.03;;;2.73;;
22794;SDS011;11564;50.920;11.612;2023-04-25T07:06:27;8.27;;;3.90;;
22794;SDS011;11564;50.920;11.612;2023-04-25T07:08:53;5.87;;;2.80;;
22794;SDS011;11564;50.920;11.612;2023-04-25T07:11:20;5.20;;;2.97;;
22794;SDS011;11564;50.920;11.612;2023-04-25T07:13:46;8.93;;;3.87;;
22794;SDS011;11564;50.920;11.612;2023-04-25T07:16:11;4.20;;;3.33;;
22794;SDS011;11564;50.920;11.612;2023-04-25T07:18:37;4.23;;;3.83;;
22794;SDS011;11564;50.920;11.612;2023-04-25T07:21:03;11.47;;;3.27;;
22794;SDS011;11564;50.920;11.612;2023-04-25T07:23:28;9.10;;;3.40;;
22794;SDS011;11564;50.920;11.612;2023-04-25T07:25:55;4.07;;;3.50;;
22794;SDS011;11564;50.920;11.612;2023-04-25T07:28:20;3.53;;;3.23;;
22794;SDS011;11564;50.920;11.612;2023-04-25T07:30:46;4.90;;;3.37;;
22794;SDS011;11564;50.920;11.612;2023-04-25T07:33:12;7.80;;;3.20;;
22794;SDS011;11564;50.920;11.612;2023-04-25T07:35:37;6.10;;;3.30;;
22794;SDS011;11564;50.920;11.612;2023-04-25T07:38:03;3.83;;;2.97;;
22794;SDS011;11564;50.920;11.612;2023-04-25T07:40:29;3.83;;;2.90;;
22794;SDS011;11564;50.920;11.612;2023-04-25T07:42:55;9.70;;;3.33;;
22794;SDS011;11564;50.920;11.612;2023-04-25T07:45:20;3.67;;;2.77;;
22794;SDS011;11564;50.920;11.612;2023-04-25T07:47:46;4.57;;;3.07;;
22794;SDS011;11564;50.920;11.612;2023-04-25T07:50:11;4.10;;;2.87;;
22794;SDS011;11564;50.920;11.612;2023-04-25T07:52:37;4.10;;;3.60;;
22794;SDS011;11564;50.920;11.612;2023-04-25T07:55:03;2.87;;;2.67;;
22794;SDS011;11564;50.920;11.612;2023-04-25T07:57:29;4.03;;;3.20;;
22794;SDS011;11564;50.920;11.612;2023-04-25T07:59:55;7.20;;;2.73;;
22794;SDS011;11564;50.920;11.612;2023-04-25T08:02:20;4.17;;;2.80;;
22794;SDS011;11564;50.920;11.612;2023-04-25T08:04:46;3.13;;;2.90;;
22794;SDS011;11564;50.920;11.612;2023-04-25T08:07:11;10.00;;;3.50;;
22794;SDS011;11564;50.920;11.612;2023-04-25T08:09:37;5.27;;;3.60;;
22794;SDS011;11564;50.920;11.612;2023-04-25T08:12:03;4.00;;;2.70;;
22794;SDS011;11564;50.920;11.612;2023-04-25T08:14:29;3.63;;;1.93;;
22794;SDS011;11564;50.920;11.612;2023-04-25T08:17:00;2.00;;;1.80;;
22794;SDS011;11564;50.920;11.612;2023-04-25T08:19:28;3.70;;;2.37;;
22794;SDS011;11564;50.920;11.612;2023-04-25T08:21:55;4.80;;;2.67;;
22794;SDS011;11564;50.920;11.612;2023-04-25T08:24:21;2.90;;;2.60;;
22794;SDS011;11564;50.920;11.612;2023-04-25T08:26:47;2.10;;;1.90;;
22794;SDS011;11564;50.920;11.612;2023-04-25T08:29:13;5.40;;;2.20;;
22794;SDS011;11564;50.920;11.612;2023-04-25T08:31:39;4.00;;;2.23;;
22794;SDS011;11564;50.920;11.612;2023-04-25T08:34:04;2.87;;;2.57;;
22794;SDS011;11564;50.920;11.612;2023-04-25T08:36:30;2.43;;;2.17;;
22794;SDS011;11564;50.920;11.612;2023-04-25T08:38:56;2.67;;;2.47;;
22794;SDS011;11564;50.920;11.612;2023-04-25T08:41:23;2.17;;;2.07;;
22794;SDS011;11564;50.920;11.612;2023-04-25T08:43:49;4.40;;;2.90;;
22794;SDS011;11564;50.920;11.612;2023-04-25T08:46:17;4.33;;;3.00;;
22794;SDS011;11564;50.920;11.612;2023-04-25T08:48:44;2.27;;;2.07;;
22794;SDS011;11564;50.920;11.612;2023-04-25T08:51:13;2.50;;;2.30;;
22794;SDS011;11564;50.920;11.612;2023-04-25T08:53:45;3.00;;;2.37;;
22794;SDS011;11564;50.920;11.612;2023-04-25T08:56:16;2.70;;;2.43;;
22794;SDS011;11564;50.920;11.612;2023-04-25T08:58:50;4.70;;;3.23;;
22794;SDS011;11564;50.920;11.612;2023-04-25T09:01:16;4.00;;;3.40;;
22794;SDS011;11564;50.920;11.612;2023-04-25T09:03:43;3.20;;;3.00;;
22794;SDS011;11564;50.920;11.612;2023-04-25T09:06:10;4.33;;;2.53;;
22794;SDS011;11564;50.920;11.612;2023-04-25T09:08:37;4.77;;;3.30;;
22794;SDS011;11564;50.920;11.612;2023-04-25T09:11:02;5.67;;;3.50;;
22794;SDS011;11564;50.920;11.612;2023-04-25T09:13:28;3.30;;;3.03;;
22794;SDS011;11564;50.920;11.612;2023-04-25T09:15:55;3.93;;;3.57;;
22794;SDS011;11564;50.920;11.612;2023-04-25T09:18:25;4.70;;;2.97;;
22794;SDS011;11564;50.920;11.612;2023-04-25T09:20:52;3.07;;;2.87;;
22794;SDS011;11564;50.920;11.612;2023-04-25T09:23:19;3.27;;;3.07;;
22794;SDS011;11564;50.920;11.612;2023-04-25T09:25:49;3.10;;;2.90;;
22794;SDS011;11564;50.920;11.612;2023-04-25T09:28:16;5.00;;;2.77;;
22794;SDS011;11564;50.920;11.612;2023-04-25T09:30:47;5.13;;;3.93;;
22794;SDS011;11564;50.920;11.612;2023-04-25T09:33:13;3.73;;;3.13;;
22794;SDS011;11564;50.920;11.612;2023-04-25T09:35:45;7.73;;;4.00;;
22794;SDS011;11564;50.920;11.612;2023-04-25T09:38:11;4.07;;;3.00;;
22794;SDS011;11564;50.920;11.612;2023-04-25T09:43:10;3.10;;;2.80;;
22794;SDS011;11564;50.920;11.612;2023-04-25T09:45:43;2.73;;;2.53;;
22794;SDS011;11564;50.920;11.612;2023-04-25T09:48:11;3.67;;;3.47;;
22794;SDS011;11564;50.920;11.612;2023-04-25T09:50:38;4.43;;;3.60;;
22794;SDS011;11564;50.920;11.612;2023-04-25T09:53:04;3.80;;;3.23;;
22794;SDS011;11564;50.920;11.612;2023-04-25T09:55:31;3.07;;;2.87;;
22794;SDS011;11564;50.920;11.612;2023-04-25T09:57:59;2.20;;;2.10;;
22794;SDS011;11564;50.920;11.612;2023-04-25T10:00:32;3.67;;;2.67;;
22794;SDS011;11564;50.920;11.612;2023-04-25T10:03:00;2.50;;;2.00;;
22794;SDS011;11564;50.920;11.612;2023-04-25T10:05:29;9.47;;;2.13;;
22794;SDS011;11564;50.920;11.612;2023-04-25T10:07:57;2.03;;;1.83;;
22794;SDS011;11564;50.920;11.612;2023-04-25T10:10:25;3.10;;;2.37;;
22794;SDS011;11564;50.920;11.612;2023-04-25T10:12:53;2.40;;;2.20;;
22794;SDS011;11564;50.920;11.612;2023-04-25T10:22:41;4.40;;;2.07;;
22794;SDS011;11564;50.920;11.612;2023-04-25T10:25:09;2.90;;;2.33;;
22794;SDS011;11564;50.920;11.612;2023-04-25T10:27:36;11.60;;;3.60;;
22794;SDS011;11564;50.920;11.612;2023-04-25T10:30:09;9.27;;;3.20;;
22794;SDS011;11564;50.920;11.612;2023-04-25T10:32:39;6.73;;;3.00;;
22794;SDS011;11564;50.920;11.612;2023-04-25T10:40:27;4.63;;;2.13;;
22794;SDS011;11564;50.920;11.612;2023-04-25T10:42:53;6.87;;;3.13;;
22794;SDS011;11564;50.920;11.612;2023-04-25T10:45:20;10.00;;;2.70;;
22794;SDS011;11564;50.920;11.612;2023-04-25T10:47:46;8.60;;;2.57;;
22794;SDS011;11564;50.920;11.612;2023-04-25T10:50:12;6.20;;;2.70;;
22794;SDS011;11564;50.920;11.612;2023-04-25T10:52:41;13.17;;;3.30;;
22794;SDS011;11564;50.920;11.612;2023-04-25T10:55:07;10.40;;;2.60;;
22794;SDS011;11564;50.920;11.612;2023-04-25T10:57:43;5.60;;;2.20;;
22794;SDS011;11564;50.920;11.612;2023-04-25T11:00:12;3.57;;;2.03;;
22794;SDS011;11564;50.920;11.612;2023-04-25T11:02:41;4.10;;;1.80;;
22794;SDS011;11564;50.920;11.612;2023-04-25T11:05:10;4.40;;;1.90;;
22794;SDS011;11564;50.920;11.612;2023-04-25T11:10:08;3.60;;;1.73;;
22794;SDS011;11564;50.920;11.612;2023-04-25T11:12:33;9.13;;;2.27;;
22794;SDS011;11564;50.920;11.612;2023-04-25T11:15:00;4.23;;;1.80;;
22794;SDS011;11564;50.920;11.612;2023-04-25T11:17:26;4.83;;;2.30;;
22794;SDS011;11564;50.920;11.612;2023-04-25T11:19:53;9.90;;;1.80;;
22794;SDS011;11564;50.920;11.612;2023-04-25T11:22:19;9.63;;;1.83;;
22794;SDS011;11564;50.920;11.612;2023-04-25T11:24:46;4.80;;;1.70;;
22794;SDS011;11564;50.920;11.612;2023-04-25T11:27:12;5.43;;;1.93;;
22794;SDS011;11564;50.920;11.612;2023-04-25T11:29:38;12.17;;;2.43;;
22794;SDS011;11564;50.920;11.612;2023-04-25T11:32:03;4.00;;;2.50;;
22794;SDS011;11564;50.920;11.612;2023-04-25T11:34:30;11.63;;;2.30;;
22794;SDS011;11564;50.920;11.612;2023-04-25T11:36:57;5.67;;;2.23;;
22794;SDS011;11564;50.920;11.612;2023-04-25T11:39:24;2.50;;;1.40;;
22794;SDS011;11564;50.920;11.612;2023-04-25T11:41:51;4.60;;;1.87;;
22794;SDS011;11564;50.920;11.612;2023-04-25T11:44:17;12.33;;;2.40;;
22794;SDS011;11564;50.920;11.612;2023-04-25T11:46:44;10.53;;;2.20;;
22794;SDS011;11564;50.920;11.612;2023-04-25T11:49:10;5.37;;;2.30;;
22794;SDS011;11564;50.920;11.612;2023-04-25T11:51:39;5.17;;;2.07;;
22794;SDS011;11564;50.920;11.612;2023-04-25T11:54:06;9.20;;;2.30;;
22794;SDS011;11564;50.920;11.612;2023-04-25T11:56:32;8.60;;;4.20;;
22794;SDS011;11564;50.920;11.612;2023-04-25T11:59:02;5.47;;;2.00;;
22794;SDS011;11564;50.920;11.612;2023-04-25T12:01:34;11.33;;;2.60;;
22794;SDS011;11564;50.920;11.612;2023-04-25T12:04:11;9.03;;;2.47;;
22794;SDS011;11564;50.920;11.612;2023-04-25T12:06:44;6.00;;;2.43;;
22794;SDS011;11564;50.920;11.612;2023-04-25T12:09:13;6.67;;;2.40;;
22794;SDS011;11564;50.920;11.612;2023-04-25T12:11:44;8.67;;;2.70;;
22794;SDS011;11564;50.920;11.612;2023-04-25T12:16:51;8.93;;;2.60;;
22794;SDS011;11564;50.920;11.612;2023-04-25T12:19:17;6.93;;;2.40;;
22794;SDS011;11564;50.920;11.612;2023-04-25T12:21:44;10.23;;;3.00;;
22794;SDS011;11564;50.920;11.612;2023-04-25T12:29:26;11.37;;;3.23;;
22794;SDS011;11564;50.920;11.612;2023-04-25T12:31:53;7.40;;;3.13;;
22794;SDS011;11564;50.920;11.612;2023-04-25T12:34:20;4.43;;;2.30;;
22794;SDS011;11564;50.920;11.612;2023-04-25T12:36:46;7.57;;;2.83;;
22794;SDS011;11564;50.920;11.612;2023-04-25T12:39:19;7.47;;;2.50;;
22794;SDS011;11564;50.920;11.612;2023-04-25T12:41:46;7.17;;;2.97;;
22794;SDS011;11564;50.920;11.612;2023-04-25T12:44:13;9.93;;;2.80;;
22794;SDS011;11564;50.920;11.612;2023-04-25T12:46:39;10.40;;;2.97;;
22794;SDS011;11564;50.920;11.612;2023-04-25T12:49:05;8.07;;;3.13;;
22794;SDS011;11564;50.920;11.612;2023-04-25T12:51:32;8.50;;;1.80;;
22794;SDS011;11564;50.920;11.612;2023-04-25T12:54:02;3.93;;;1.60;;
22794;SDS011;11564;50.920;11.612;2023-04-25T12:56:29;7.90;;;2.10;;
22794;SDS011;11564;50.920;11.612;2023-04-25T12:58:55;4.50;;;1.70;;
22794;SDS011;11564;50.920;11.612;2023-04-25T13:01:21;4.60;;;1.80;;
22794;SDS011;11564;50.920;11.612;2023-04-25T13:03:47;5.90;;;1.70;;
22794;SDS011;11564;50.920;11.612;2023-04-25T13:06:13;5.77;;;2.30;;
22794;SDS011;11564;50.920;11.612;2023-04-25T13:08:40;6.10;;;2.17;;
22794;SDS011;11564;50.920;11.612;2023-04-25T13:11:06;4.30;;;2.10;;
22794;SDS011;11564;50.920;11.612;2023-04-25T13:13:31;4.10;;;1.77;;
22794;SDS011;11564;50.920;11.612;2023-04-25T13:15:59;4.67;;;1.93;;
22794;SDS011;11564;50.920;11.612;2023-04-25T13:18:25;8.43;;;2.30;;
22794;SDS011;11564;50.920;11.612;2023-04-25T13:20:54;3.27;;;2.07;;
22794;SDS011;11564;50.920;11.612;2023-04-25T13:23:20;4.00;;;1.70;;
22794;SDS011;11564;50.920;11.612;2023-04-25T13:25:46;8.07;;;1.97;;
22794;SDS011;11564;50.920;11.612;2023-04-25T13:28:12;5.43;;;2.20;;
22794;SDS011;11564;50.920;11.612;2023-04-25T13:30:38;4.93;;;2.63;;
22794;SDS011;11564;50.920;11.612;2023-04-25T13:33:04;5.97;;;2.53;;
22794;SDS011;11564;50.920;11.612;2023-04-25T13:35:32;5.47;;;2.23;;
22794;SDS011;11564;50.920;11.612;2023-04-25T13:37:59;8.97;;;2.40;;
22794;SDS011;11564;50.920;11.612;2023-04-25T13:40:25;8.90;;;1.40;;
22794;SDS011;11564;50.920;11.612;2023-04-25T13:42:51;11.37;;;3.10;;
